sensor_id;sensor_type;location;lat;lon;timestamp;pressure;altitude;pressure_sealevel;temperature;humidity
68994;BME280;56054;50.968;5.816;2023-04-07T07:32:28;100819.13;;;7.86;100.00
68994;BME280;56054;50.968;5.816;2023-04-07T07:35:35;100828.59;;;7.86;100.00
68994;BME280;56054;50.968;5.816;2023-04-07T07:38:42;100827.09;;;7.78;100.00
68994;BME280;56054;50.968;5.816;2023-04-07T07:41:49;100820.91;;;7.87;100.00
68994;BME280;56054;50.968;5.816;2023-04-07T07:44:56;100831.19;;;7.86;100.00
68994;BME280;56054;50.968;5.816;2023-04-07T07:48:04;100836.13;;;7.94;100.00
68994;BME280;56054;50.968;5.816;2023-04-07T07:51:11;100836.25;;;7.96;100.00
68994;BME280;56054;50.968;5.816;2023-04-07T07:54:18;100834.34;;;8.05;100.00
68994;BME280;56054;50.968;5.816;2023-04-07T07:57:25;100837.63;;;8.03;100.00
68994;BME280;56054;50.968;5.816;2023-04-07T08:00:32;100842.00;;;8.15;100.00
68994;BME280;56054;50.968;5.816;2023-04-07T08:03:39;100851.22;;;8.12;100.00
68994;BME280;56054;50.968;5.816;2023-04-07T08:06:46;100844.94;;;8.08;100.00
68994;BME280;56054;50.968;5.816;2023-04-07T08:09:53;100852.25;;;8.02;100.00
68994;BME280;56054;50.968;5.816;2023-04-07T08:13:00;100852.16;;;8.12;100.00
68994;BME280;56054;50.968;5.816;2023-04-07T08:16:07;100846.66;;;8.20;100.00
68994;BME280;56054;50.968;5.816;2023-04-07T08:19:14;100853.59;;;8.21;100.00
68994;BME280;56054;50.968;5.816;2023-04-07T08:22:27;100854.38;;;8.31;100.00
68994;BME280;56054;50.968;5.816;2023-04-07T08:25:35;100857.78;;;8.30;100.00
68994;BME280;56054;50.968;5.816;2023-04-07T08:28:49;100854.75;;;8.24;100.00
68994;BME280;56054;50.968;5.816;2023-04-07T08:31:56;100852.94;;;8.35;100.00
68994;BME280;56054;50.968;5.816;2023-04-07T08:35:10;100867.47;;;8.33;100.00
68994;BME280;56054;50.968;5.816;2023-04-07T08:38:18;100858.66;;;8.31;100.00
68994;BME280;56054;50.968;5.816;2023-04-07T08:41:32;100872.34;;;8.40;100.00
68994;BME280;56054;50.968;5.816;2023-04-07T08:44:43;100871.44;;;8.40;100.00
68994;BME280;56054;50.968;5.816;2023-04-07T08:47:53;100869.75;;;8.40;100.00
68994;BME280;56054;50.968;5.816;2023-04-07T08:51:04;100873.47;;;8.44;100.00
68994;BME280;56054;50.968;5.816;2023-04-07T08:54:15;100867.16;;;8.40;100.00
68994;BME280;56054;50.968;5.816;2023-04-07T08:57:22;100878.97;;;8.48;100.00
68994;BME280;56054;50.968;5.816;2023-04-07T09:00:29;100880.66;;;8.60;100.00
68994;BME280;56054;50.968;5.816;2023-04-07T09:03:37;100883.59;;;8.64;100.00
68994;BME280;56054;50.968;5.816;2023-04-07T09:06:44;100882.59;;;8.74;100.00
68994;BME280;56054;50.968;5.816;2023-04-07T09:09:51;100876.84;;;8.66;100.00
68994;BME280;56054;50.968;5.816;2023-04-07T09:12:58;100871.66;;;8.78;100.00
68994;BME280;56054;50.968;5.816;2023-04-07T09:16:05;100877.59;;;8.89;100.00
68994;BME280;56054;50.968;5.816;2023-04-07T09:19:12;100882.66;;;8.99;100.00
68994;BME280;56054;50.968;5.816;2023-04-07T09:22:33;100884.41;;;9.12;100.00
68994;BME280;56054;50.968;5.816;2023-04-07T09:25:40;100885.09;;;9.09;100.00
68994;BME280;56054;50.968;5.816;2023-04-07T09:29:03;100888.47;;;9.20;100.00
68994;BME280;56054;50.968;5.816;2023-04-07T09:32:10;100883.50;;;9.23;100.00
68994;BME280;56054;50.968;5.816;2023-04-07T09:35:17;100892.84;;;9.21;100.00
68994;BME280;56054;50.968;5.816;2023-04-07T09:38:34;100885.97;;;9.21;100.00
68994;BME280;56054;50.968;5.816;2023-04-07T09:41:41;100883.94;;;9.29;100.00
68994;BME280;56054;50.968;5.816;2023-04-07T09:44:48;100889.34;;;9.32;100.00
68994;BME280;56054;50.968;5.816;2023-04-07T09:47:55;100886.47;;;9.41;100.00
68994;BME280;56054;50.968;5.816;2023-04-07T09:51:11;100883.47;;;9.35;100.00
68994;BME280;56054;50.968;5.816;2023-04-07T09:54:33;100889.56;;;9.35;100.00
68994;BME280;56054;50.968;5.816;2023-04-07T09:57:41;100895.59;;;9.48;100.00
68994;BME280;56054;50.968;5.816;2023-04-07T10:00:49;100888.78;;;9.61;100.00
68994;BME280;56054;50.968;5.816;2023-04-07T10:03:56;100884.75;;;9.78;100.00
68994;BME280;56054;50.968;5.816;2023-04-07T10:07:04;100889.56;;;9.85;100.00
68994;BME280;56054;50.968;5.816;2023-04-07T10:10:15;100890.38;;;9.59;100.00
68994;BME280;56054;50.968;5.816;2023-04-07T10:13:48;100891.91;;;9.69;100.00
68994;BME280;56054;50.968;5.816;2023-04-07T10:16:56;100888.72;;;9.73;100.00
68994;BME280;56054;50.968;5.816;2023-04-07T10:20:03;100893.94;;;9.73;100.00
68994;BME280;56054;50.968;5.816;2023-04-07T10:23:24;100897.03;;;9.81;100.00
68994;BME280;56054;50.968;5.816;2023-04-07T10:26:37;100893.75;;;9.83;100.00
68994;BME280;56054;50.968;5.816;2023-04-07T10:29:48;100888.50;;;9.95;100.00
68994;BME280;56054;50.968;5.816;2023-04-07T10:32:55;100888.38;;;9.94;100.00
68994;BME280;56054;50.968;5.816;2023-04-07T10:36:06;100897.00;;;9.93;100.00
68994;BME280;56054;50.968;5.816;2023-04-07T10:49:10;100906.16;;;9.88;100.00
68994;BME280;56054;50.968;5.816;2023-04-07T10:52:21;100903.06;;;9.93;100.00
68994;BME280;56054;50.968;5.816;2023-04-07T10:55:42;100912.41;;;10.16;100.00
68994;BME280;56054;50.968;5.816;2023-04-07T10:59:15;100910.28;;;10.36;100.00
68994;BME280;56054;50.968;5.816;2023-04-07T11:05:29;100922.22;;;10.20;100.00
68994;BME280;56054;50.968;5.816;2023-04-07T11:08:47;100916.44;;;9.99;100.00
68994;BME280;56054;50.968;5.816;2023-04-07T11:11:54;100918.06;;;9.97;100.00
68994;BME280;56054;50.968;5.816;2023-04-07T11:15:16;100926.06;;;10.00;100.00
68994;BME280;56054;50.968;5.816;2023-04-07T11:18:23;100922.16;;;10.07;100.00
68994;BME280;56054;50.968;5.816;2023-04-07T11:21:30;100923.97;;;10.08;100.00
68994;BME280;56054;50.968;5.816;2023-04-07T11:25:19;100938.59;;;10.19;100.00
68994;BME280;56054;50.968;5.816;2023-04-07T11:28:26;100923.41;;;10.25;100.00
68994;BME280;56054;50.968;5.816;2023-04-07T11:31:33;100930.34;;;10.38;100.00
68994;BME280;56054;50.968;5.816;2023-04-07T11:34:40;100935.56;;;10.38;100.00
68994;BME280;56054;50.968;5.816;2023-04-07T11:37:48;100932.44;;;10.31;100.00
68994;BME280;56054;50.968;5.816;2023-04-07T11:40:55;100934.38;;;10.21;100.00
68994;BME280;56054;50.968;5.816;2023-04-07T11:44:08;100931.19;;;10.12;100.00
68994;BME280;56054;50.968;5.816;2023-04-07T11:47:16;100938.50;;;10.18;100.00
68994;BME280;56054;50.968;5.816;2023-04-07T11:50:39;100939.91;;;10.26;100.00
68994;BME280;56054;50.968;5.816;2023-04-07T11:53:53;100939.97;;;10.14;100.00
68994;BME280;56054;50.968;5.816;2023-04-07T11:57:01;100946.50;;;9.96;100.00
68994;BME280;56054;50.968;5.816;2023-04-07T12:00:10;100946.19;;;9.91;100.00
68994;BME280;56054;50.968;5.816;2023-04-07T12:03:17;100953.66;;;9.86;100.00
68994;BME280;56054;50.968;5.816;2023-04-07T12:06:32;100948.66;;;9.90;100.00
68994;BME280;56054;50.968;5.816;2023-04-07T12:09:40;100957.78;;;9.96;100.00
68994;BME280;56054;50.968;5.816;2023-04-07T12:12:47;100956.13;;;9.85;100.00
68994;BME280;56054;50.968;5.816;2023-04-07T12:15:58;100957.38;;;9.90;100.00
68994;BME280;56054;50.968;5.816;2023-04-07T12:19:05;100964.03;;;9.86;100.00
68994;BME280;56054;50.968;5.816;2023-04-07T12:22:12;100958.75;;;10.10;100.00
68994;BME280;56054;50.968;5.816;2023-04-07T12:25:19;100964.13;;;10.13;100.00
68994;BME280;56054;50.968;5.816;2023-04-07T12:28:26;100964.03;;;10.37;100.00
68994;BME280;56054;50.968;5.816;2023-04-07T12:31:33;100974.22;;;10.34;100.00
68994;BME280;56054;50.968;5.816;2023-04-07T12:34:40;100969.38;;;10.52;100.00
68994;BME280;56054;50.968;5.816;2023-04-07T12:37:47;100968.69;;;10.67;100.00
68994;BME280;56054;50.968;5.816;2023-04-07T12:40:54;100963.50;;;10.81;100.00
68994;BME280;56054;50.968;5.816;2023-04-07T12:44:01;100969.59;;;10.95;100.00
68994;BME280;56054;50.968;5.816;2023-04-07T12:47:08;100965.06;;;11.19;100.00
68994;BME280;56054;50.968;5.816;2023-04-07T12:50:15;100968.72;;;11.07;100.00
68994;BME280;56054;50.968;5.816;2023-04-07T12:53:22;100974.47;;;11.17;100.00
68994;BME280;56054;50.968;5.816;2023-04-07T12:56:29;100980.00;;;11.08;100.00
68994;BME280;56054;50.968;5.816;2023-04-07T12:59:36;100971.00;;;11.03;100.00
68994;BME280;56054;50.968;5.816;2023-04-07T13:02:43;100973.81;;;10.92;100.00
68994;BME280;56054;50.968;5.816;2023-04-07T13:05:53;100969.09;;;10.87;100.00
68994;BME280;56054;50.968;5.816;2023-04-07T13:09:00;100969.09;;;10.87;100.00
68994;BME280;56054;50.968;5.816;2023-04-07T13:12:08;100973.59;;;10.89;100.00
68994;BME280;56054;50.968;5.816;2023-04-07T13:15:15;100973.28;;;10.85;100.00
68994;BME280;56054;50.968;5.816;2023-04-07T13:18:22;100978.56;;;10.60;100.00
68994;BME280;56054;50.968;5.816;2023-04-07T13:21:29;100973.88;;;10.54;100.00
68994;BME280;56054;50.968;5.816;2023-04-07T13:24:37;100986.22;;;10.45;100.00
68994;BME280;56054;50.968;5.816;2023-04-07T13:27:44;100992.50;;;10.35;100.00
68994;BME280;56054;50.968;5.816;2023-04-07T13:30:51;100984.84;;;10.25;100.00
68994;BME280;56054;50.968;5.816;2023-04-07T13:33:58;100998.72;;;10.25;100.00
68994;BME280;56054;50.968;5.816;2023-04-07T13:37:05;100995.72;;;10.19;100.00
68994;BME280;56054;50.968;5.816;2023-04-07T13:40:12;100989.97;;;10.12;100.00
68994;BME280;56054;50.968;5.816;2023-04-07T13:43:19;100991.81;;;10.13;100.00
68994;BME280;56054;50.968;5.816;2023-04-07T13:46:27;100992.13;;;10.17;100.00
68994;BME280;56054;50.968;5.816;2023-04-07T13:49:34;100991.69;;;10.11;100.00
68994;BME280;56054;50.968;5.816;2023-04-07T13:52:41;100991.47;;;10.08;100.00
68994;BME280;56054;50.968;5.816;2023-04-07T13:55:48;100996.25;;;10.02;100.00
68994;BME280;56054;50.968;5.816;2023-04-07T13:58:55;100994.19;;;10.10;100.00
68994;BME280;56054;50.968;5.816;2023-04-07T14:02:02;100992.19;;;10.05;100.00
68994;BME280;56054;50.968;5.816;2023-04-07T14:05:09;100991.03;;;10.02;100.00
68994;BME280;56054;50.968;5.816;2023-04-07T14:08:16;100997.00;;;10.13;100.00
68994;BME280;56054;50.968;5.816;2023-04-07T14:11:27;101002.06;;;10.11;100.00
68994;BME280;56054;50.968;5.816;2023-04-07T14:14:34;100990.78;;;10.11;100.00
68994;BME280;56054;50.968;5.816;2023-04-07T14:17:41;101002.00;;;10.10;100.00
68994;BME280;56054;50.968;5.816;2023-04-07T14:20:48;101007.19;;;10.10;100.00
68994;BME280;56054;50.968;5.816;2023-04-07T14:23:55;101000.97;;;10.07;100.00
68994;BME280;56054;50.968;5.816;2023-04-07T14:27:02;100994.28;;;10.11;100.00
68994;BME280;56054;50.968;5.816;2023-04-07T14:30:10;101000.50;;;10.13;100.00
68994;BME280;56054;50.968;5.816;2023-04-07T14:33:17;101001.19;;;10.11;100.00
68994;BME280;56054;50.968;5.816;2023-04-07T14:36:24;101005.88;;;10.16;100.00
68994;BME280;56054;50.968;5.816;2023-04-07T14:39:31;100998.91;;;10.15;100.00
68994;BME280;56054;50.968;5.816;2023-04-07T14:42:38;101012.66;;;10.14;100.00
68994;BME280;56054;50.968;5.816;2023-04-07T14:45:48;101002.28;;;10.14;100.00
68994;BME280;56054;50.968;5.816;2023-04-07T14:48:55;100999.91;;;10.17;100.00
68994;BME280;56054;50.968;5.816;2023-04-07T14:52:02;100996.31;;;10.15;100.00
68994;BME280;56054;50.968;5.816;2023-04-07T14:55:09;101001.38;;;10.14;100.00
68994;BME280;56054;50.968;5.816;2023-04-07T14:58:16;101008.72;;;10.19;100.00
68994;BME280;56054;50.968;5.816;2023-04-07T15:01:23;101010.31;;;10.17;100.00
68994;BME280;56054;50.968;5.816;2023-04-07T15:04:30;101007.72;;;10.17;100.00
68994;BME280;56054;50.968;5.816;2023-04-07T15:07:37;101014.81;;;10.20;100.00
68994;BME280;56054;50.968;5.816;2023-04-07T15:10:44;101015.13;;;10.24;100.00
68994;BME280;56054;50.968;5.816;2023-04-07T15:13:51;101017.66;;;10.36;100.00
68994;BME280;56054;50.968;5.816;2023-04-07T15:16:58;101022.81;;;10.48;100.00
68994;BME280;56054;50.968;5.816;2023-04-07T15:20:05;101024.81;;;10.52;100.00
68994;BME280;56054;50.968;5.816;2023-04-07T15:23:12;101023.25;;;10.54;100.00
68994;BME280;56054;50.968;5.816;2023-04-07T15:26:19;101026.53;;;10.52;100.00
68994;BME280;56054;50.968;5.816;2023-04-07T15:29:27;101020.44;;;10.51;100.00
68994;BME280;56054;50.968;5.816;2023-04-07T15:32:34;101028.44;;;10.54;100.00
68994;BME280;56054;50.968;5.816;2023-04-07T15:35:47;101021.97;;;10.61;100.00
68994;BME280;56054;50.968;5.816;2023-04-07T15:38:54;101023.94;;;10.52;100.00
68994;BME280;56054;50.968;5.816;2023-04-07T15:42:01;101031.03;;;10.54;100.00
68994;BME280;56054;50.968;5.816;2023-04-07T15:45:08;101031.53;;;10.48;100.00
68994;BME280;56054;50.968;5.816;2023-04-07T15:48:16;101018.81;;;10.53;100.00
68994;BME280;56054;50.968;5.816;2023-04-07T15:51:23;101044.22;;;10.57;100.00
68994;BME280;56054;50.968;5.816;2023-04-07T15:54:30;101038.41;;;10.48;100.00
68994;BME280;56054;50.968;5.816;2023-04-07T15:57:37;101035.78;;;10.48;100.00
68994;BME280;56054;50.968;5.816;2023-04-07T16:00:44;101041.59;;;10.44;100.00
68994;BME280;56054;50.968;5.816;2023-04-07T16:03:51;101047.13;;;10.48;100.00
68994;BME280;56054;50.968;5.816;2023-04-07T16:06:58;101051.00;;;10.55;100.00
68994;BME280;56054;50.968;5.816;2023-04-07T16:10:07;101052.00;;;10.44;100.00
68994;BME280;56054;50.968;5.816;2023-04-07T16:13:14;101047.56;;;10.43;100.00
68994;BME280;56054;50.968;5.816;2023-04-07T16:16:21;101052.38;;;10.37;100.00
68994;BME280;56054;50.968;5.816;2023-04-07T16:19:28;101065.22;;;10.35;100.00
68994;BME280;56054;50.968;5.816;2023-04-07T16:22:35;101067.03;;;10.36;100.00
68994;BME280;56054;50.968;5.816;2023-04-07T16:25:42;101066.13;;;10.36;100.00
68994;BME280;56054;50.968;5.816;2023-04-07T16:28:49;101067.03;;;10.36;100.00
68994;BME280;56054;50.968;5.816;2023-04-07T16:31:56;101063.66;;;10.25;100.00
68994;BME280;56054;50.968;5.816;2023-04-07T16:35:03;101076.78;;;10.27;100.00
68994;BME280;56054;50.968;5.816;2023-04-07T16:38:13;101084.31;;;10.24;100.00
68994;BME280;56054;50.968;5.816;2023-04-07T16:41:20;101084.44;;;10.25;100.00
68994;BME280;56054;50.968;5.816;2023-04-07T16:44:27;101084.59;;;10.15;100.00
68994;BME280;56054;50.968;5.816;2023-04-07T16:47:34;101083.78;;;10.16;100.00
68994;BME280;56054;50.968;5.816;2023-04-07T16:50:42;101089.13;;;10.06;100.00
68994;BME280;56054;50.968;5.816;2023-04-07T16:53:49;101092.00;;;9.97;100.00
68994;BME280;56054;50.968;5.816;2023-04-07T16:56:56;101095.13;;;10.05;100.00
68994;BME280;56054;50.968;5.816;2023-04-07T17:00:03;101098.31;;;10.38;100.00
68994;BME280;56054;50.968;5.816;2023-04-07T17:03:13;101100.16;;;10.27;100.00
68994;BME280;56054;50.968;5.816;2023-04-07T17:06:20;101111.66;;;10.31;100.00
68994;BME280;56054;50.968;5.816;2023-04-07T17:09:27;101105.16;;;10.12;100.00
68994;BME280;56054;50.968;5.816;2023-04-07T17:12:34;101110.06;;;9.84;100.00
68994;BME280;56054;50.968;5.816;2023-04-07T17:15:41;101113.00;;;9.89;100.00
68994;BME280;56054;50.968;5.816;2023-04-07T17:18:48;101116.59;;;9.91;100.00
68994;BME280;56054;50.968;5.816;2023-04-07T17:21:55;101108.03;;;9.80;100.00
68994;BME280;56054;50.968;5.816;2023-04-07T17:25:03;101119.09;;;9.77;100.00
68994;BME280;56054;50.968;5.816;2023-04-07T17:28:11;101121.13;;;9.81;100.00
68994;BME280;56054;50.968;5.816;2023-04-07T17:31:18;101129.03;;;9.83;100.00
68994;BME280;56054;50.968;5.816;2023-04-07T17:34:25;101130.69;;;10.06;100.00
68994;BME280;56054;50.968;5.816;2023-04-07T17:37:32;101133.28;;;9.94;100.00
68994;BME280;56054;50.968;5.816;2023-04-07T17:40:39;101132.63;;;9.85;100.00
68994;BME280;56054;50.968;5.816;2023-04-07T17:43:46;101147.88;;;9.80;100.00
68994;BME280;56054;50.968;5.816;2023-04-07T17:46:58;101138.63;;;9.72;100.00
68994;BME280;56054;50.968;5.816;2023-04-07T17:50:13;101139.44;;;9.71;100.00
68994;BME280;56054;50.968;5.816;2023-04-07T17:53:20;101146.66;;;9.63;100.00
68994;BME280;56054;50.968;5.816;2023-04-07T17:56:27;101154.66;;;9.67;100.00
68994;BME280;56054;50.968;5.816;2023-04-07T17:59:34;101152.75;;;9.64;100.00
68994;BME280;56054;50.968;5.816;2023-04-07T18:02:41;101159.28;;;9.59;100.00
68994;BME280;56054;50.968;5.816;2023-04-07T18:05:48;101154.88;;;9.58;100.00
68994;BME280;56054;50.968;5.816;2023-04-07T18:08:55;101164.81;;;9.52;100.00
68994;BME280;56054;50.968;5.816;2023-04-07T18:12:02;101164.91;;;9.53;100.00
68994;BME280;56054;50.968;5.816;2023-04-07T18:15:09;101167.41;;;9.52;100.00
68994;BME280;56054;50.968;5.816;2023-04-07T18:18:16;101166.94;;;9.46;100.00
68994;BME280;56054;50.968;5.816;2023-04-07T18:21:26;101177.31;;;9.46;100.00
68994;BME280;56054;50.968;5.816;2023-04-07T18:24:33;101179.47;;;9.39;100.00
68994;BME280;56054;50.968;5.816;2023-04-07T18:27:40;101185.75;;;9.31;100.00
68994;BME280;56054;50.968;5.816;2023-04-07T18:31:13;101179.56;;;9.29;100.00
68994;BME280;56054;50.968;5.816;2023-04-07T18:34:27;101188.13;;;9.28;100.00
68994;BME280;56054;50.968;5.816;2023-04-07T18:37:34;101184.97;;;9.32;100.00
68994;BME280;56054;50.968;5.816;2023-04-07T18:40:41;101190.34;;;9.24;100.00
68994;BME280;56054;50.968;5.816;2023-04-07T18:43:48;101195.31;;;9.20;100.00
68994;BME280;56054;50.968;5.816;2023-04-07T18:46:58;101194.78;;;9.25;100.00
68994;BME280;56054;50.968;5.816;2023-04-07T18:50:05;101199.38;;;9.29;100.00
68994;BME280;56054;50.968;5.816;2023-04-07T18:53:13;101206.81;;;9.24;100.00
68994;BME280;56054;50.968;5.816;2023-04-07T18:56:20;101212.56;;;9.20;100.00
68994;BME280;56054;50.968;5.816;2023-04-07T18:59:27;101209.97;;;9.20;100.00
68994;BME280;56054;50.968;5.816;2023-04-07T19:02:34;101226.25;;;9.29;100.00
68994;BME280;56054;50.968;5.816;2023-04-07T19:05:41;101225.22;;;9.27;100.00
68994;BME280;56054;50.968;5.816;2023-04-07T19:08:55;101224.38;;;9.16;100.00
68994;BME280;56054;50.968;5.816;2023-04-07T19:12:02;101238.81;;;9.13;100.00
68994;BME280;56054;50.968;5.816;2023-04-07T19:15:12;101234.75;;;9.16;100.00
68994;BME280;56054;50.968;5.816;2023-04-07T19:18:19;101238.28;;;9.17;100.00
68994;BME280;56054;50.968;5.816;2023-04-07T19:21:26;101250.09;;;9.13;100.00
68994;BME280;56054;50.968;5.816;2023-04-07T19:24:33;101252.53;;;9.12;100.00
68994;BME280;56054;50.968;5.816;2023-04-07T19:27:40;101240.16;;;9.08;100.00
68994;BME280;56054;50.968;5.816;2023-04-07T19:30:47;101247.81;;;9.06;100.00
68994;BME280;56054;50.968;5.816;2023-04-07T19:33:57;101243.19;;;9.14;100.00
68994;BME280;56054;50.968;5.816;2023-04-07T19:37:30;101254.44;;;9.03;100.00
68994;BME280;56054;50.968;5.816;2023-04-07T19:40:37;101249.50;;;9.06;100.00
68994;BME280;56054;50.968;5.816;2023-04-07T19:44:10;101265.94;;;9.06;100.00
68994;BME280;56054;50.968;5.816;2023-04-07T19:47:22;101265.84;;;9.05;100.00
68994;BME280;56054;50.968;5.816;2023-04-07T19:50:29;101270.53;;;8.98;100.00
68994;BME280;56054;50.968;5.816;2023-04-07T19:53:36;101269.22;;;9.04;100.00
68994;BME280;56054;50.968;5.816;2023-04-07T19:56:43;101274.53;;;9.05;100.00
68994;BME280;56054;50.968;5.816;2023-04-07T19:59:50;101278.97;;;8.96;100.00
68994;BME280;56054;50.968;5.816;2023-04-07T20:02:57;101274.94;;;8.99;100.00
68994;BME280;56054;50.968;5.816;2023-04-07T20:06:04;101282.97;;;9.03;100.00
68994;BME280;56054;50.968;5.816;2023-04-07T20:09:11;101287.50;;;9.05;100.00
68994;BME280;56054;50.968;5.816;2023-04-07T20:12:18;101287.50;;;9.05;100.00
68994;BME280;56054;50.968;5.816;2023-04-07T20:15:25;101292.22;;;9.11;100.00
68994;BME280;56054;50.968;5.816;2023-04-07T20:18:32;101290.66;;;9.13;100.00
68994;BME280;56054;50.968;5.816;2023-04-07T20:21:39;101295.25;;;9.05;100.00
68994;BME280;56054;50.968;5.816;2023-04-07T20:24:46;101299.56;;;9.05;100.00
68994;BME280;56054;50.968;5.816;2023-04-07T20:27:53;101302.16;;;9.05;100.00
68994;BME280;56054;50.968;5.816;2023-04-07T20:31:00;101309.13;;;9.06;100.00
68994;BME280;56054;50.968;5.816;2023-04-07T20:34:07;101311.22;;;8.99;100.00
68994;BME280;56054;50.968;5.816;2023-04-07T20:37:14;101318.00;;;8.97;100.00
68994;BME280;56054;50.968;5.816;2023-04-07T20:40:21;101315.50;;;8.99;100.00
68994;BME280;56054;50.968;5.816;2023-04-07T20:43:28;101315.81;;;8.92;100.00
68994;BME280;56054;50.968;5.816;2023-04-07T20:46:35;101317.94;;;8.86;100.00
68994;BME280;56054;50.968;5.816;2023-04-07T20:49:42;101312.19;;;8.90;100.00
68994;BME280;56054;50.968;5.816;2023-04-07T20:52:49;101319.97;;;8.90;100.00
68994;BME280;56054;50.968;5.816;2023-04-07T20:55:56;101322.97;;;8.84;100.00
68994;BME280;56054;50.968;5.816;2023-04-07T20:59:03;101318.69;;;8.85;100.00
68994;BME280;56054;50.968;5.816;2023-04-07T21:02:10;101316.47;;;8.89;100.00
68994;BME280;56054;50.968;5.816;2023-04-07T21:05:17;101317.50;;;8.91;100.00
68994;BME280;56054;50.968;5.816;2023-04-07T21:08:24;101327.41;;;8.85;100.00
68994;BME280;56054;50.968;5.816;2023-04-07T21:11:31;101312.19;;;8.90;100.00
68994;BME280;56054;50.968;5.816;2023-04-07T21:14:38;101324.91;;;8.87;100.00
68994;BME280;56054;50.968;5.816;2023-04-07T21:17:45;101329.06;;;8.85;100.00
68994;BME280;56054;50.968;5.816;2023-04-07T21:20:58;101329.06;;;8.85;100.00
68994;BME280;56054;50.968;5.816;2023-04-07T21:24:05;101329.06;;;8.85;100.00
68994;BME280;56054;50.968;5.816;2023-04-07T21:27:12;101315.06;;;8.83;100.00
68994;BME280;56054;50.968;5.816;2023-04-07T21:30:19;101327.19;;;8.94;100.00
68994;BME280;56054;50.968;5.816;2023-04-07T21:33:26;101333.47;;;8.86;100.00
68994;BME280;56054;50.968;5.816;2023-04-07T21:36:33;101322.97;;;8.84;100.00
68994;BME280;56054;50.968;5.816;2023-04-07T21:39:40;101330.00;;;8.85;100.00
68994;BME280;56054;50.968;5.816;2023-04-07T21:42:47;101331.41;;;8.82;100.00
68994;BME280;56054;50.968;5.816;2023-04-07T21:45:54;101327.69;;;8.78;100.00
68994;BME280;56054;50.968;5.816;2023-04-07T21:49:07;101328.16;;;8.84;100.00
68994;BME280;56054;50.968;5.816;2023-04-07T21:52:15;101331.78;;;8.86;100.00
68994;BME280;56054;50.968;5.816;2023-04-07T21:55:22;101334.25;;;8.85;100.00
68994;BME280;56054;50.968;5.816;2023-04-07T21:58:29;101341.78;;;8.82;100.00
68994;BME280;56054;50.968;5.816;2023-04-07T22:01:36;101333.56;;;8.87;100.00
68994;BME280;56054;50.968;5.816;2023-04-07T22:04:43;101340.50;;;8.76;100.00
68994;BME280;56054;50.968;5.816;2023-04-07T22:07:50;101340.97;;;8.83;100.00
